Terminal Aerodrome Forecast
Issued by NWS

Home | Current Version | Previous Version | Text Only | Print | Product List | Glossary On
Versions: 1 2 3 4 5 6 7 8 9 10 11 12
604
FTUS46 KHNX 191743
TAFMCE
TAF
KMCE 191743Z 1918/2018 30004KT P6SM SCT100
     FM200000 32008KT 6SM HZ SCT060 BKN100
     FM200600 29012KT P6SM BKN060 PROB30 2008/2012 6SM -RA OVC050
     FM201200 32012KT P6SM SCT050=

USA.gov is the U.S. government's official web portal to all federal, state and local government web resources and services.